Time;durP1;ratioP1;P1;durP2;ratioP2;P2;SDS_P1;SDS_P2;PMS_P1;PMS_P2;Temp;Humidity;BMP_temperature;BMP_pressure;BME280_temperature;BME280_humidity;BME280_pressure;Samples;Min_cycle;Max_cycle;Signal;HPM_P1;HPM_P2
2021/05/01 00:01:35;;;;;;;27.23;24.52;;;7.80;99.90;;;;;;5075526;28;20066;-60
2021/05/01 00:04:01;;;;;;;27.92;25.00;;;7.80;99.90;;;;;;5078943;28;20060;-60
2021/05/01 00:06:27;;;;;;;28.48;25.48;;;7.80;99.90;;;;;;5082313;28;20040;-60
2021/05/01 00:08:52;;;;;;;27.95;25.15;;;7.80;99.90;;;;;;5089737;28;20043;-60
2021/05/01 00:11:19;;;;;;;31.17;27.92;;;7.70;99.90;;;;;;5078949;28;20229;-60
2021/05/01 00:13:45;;;;;;;32.55;27.75;;;7.70;99.90;;;;;;5084301;28;20036;-59
2021/05/01 00:16:11;;;;;;;29.17;26.05;;;7.70;99.90;;;;;;5084307;28;20040;-59
2021/05/01 00:18:37;;;;;;;29.67;26.45;;;7.70;99.90;;;;;;5075718;28;20086;-60
2021/05/01 00:21:03;;;;;;;28.60;25.70;;;7.70;99.90;;;;;;5084522;28;20036;-59
2021/05/01 00:23:30;;;;;;;26.35;23.75;;;7.70;99.90;;;;;;5078184;28;20125;-60
2021/05/01 00:25:58;;;;;;;27.80;24.90;;;7.70;99.90;;;;;;5084838;28;20408;-60
2021/05/01 00:28:24;;;;;;;29.15;24.60;;;7.60;99.90;;;;;;5075119;28;20037;-60
2021/05/01 00:30:49;;;;;;;28.27;25.15;;;7.70;99.90;;;;;;5080491;28;20036;-60
2021/05/01 00:33:15;;;;;;;27.80;25.00;;;7.60;99.90;;;;;;5083166;28;20443;-60
2021/05/01 00:35:43;;;;;;;29.38;26.27;;;7.60;99.90;;;;;;5078128;28;20475;-59
2021/05/01 00:38:09;;;;;;;31.85;28.15;;;7.60;99.90;;;;;;5078149;28;20052;-60
2021/05/01 00:40:34;;;;;;;31.83;28.13;;;7.60;99.90;;;;;;5080029;28;20071;-60
2021/05/01 00:43:00;;;;;;;32.50;27.58;;;7.60;99.90;;;;;;5079008;28;20451;-60
2021/05/01 00:45:26;;;;;;;31.77;27.45;;;7.60;99.90;;;;;;5082704;28;20071;-60
2021/05/01 00:47:52;;;;;;;30.27;27.17;;;7.60;99.90;;;;;;5078759;28;20040;-59
2021/05/01 00:50:18;;;;;;;29.52;26.33;;;7.60;99.90;;;;;;5082878;28;20043;-60
2021/05/01 00:52:45;;;;;;;29.67;26.65;;;7.60;99.90;;;;;;5076921;28;20051;-60
2021/05/01 00:55:11;;;;;;;36.90;30.33;;;7.50;99.90;;;;;;5074377;28;20033;-60
2021/05/01 00:57:38;;;;;;;41.05;30.80;;;7.50;99.90;;;;;;5084070;28;20036;-60
2021/05/01 01:00:57;;;;;;;30.63;27.33;;;7.50;99.90;;;;;;5075436;28;20043;-60
2021/05/01 01:02:57;;;;;;;36.53;28.98;;;7.50;99.90;;;;;;5085729;28;20373;-60
2021/05/01 01:05:24;;;;;;;35.60;29.90;;;7.50;99.90;;;;;;5073193;28;20501;-60
2021/05/01 01:07:50;;;;;;;30.73;27.48;;;7.50;99.90;;;;;;5083402;28;20444;-60
2021/05/01 01:10:16;;;;;;;34.58;29.05;;;7.50;99.90;;;;;;5075869;28;20355;-60
2021/05/01 01:12:42;;;;;;;33.65;28.50;;;7.50;99.90;;;;;;5087376;28;20063;-60
2021/05/01 01:15:08;;;;;;;30.80;27.60;;;7.50;99.90;;;;;;5077741;28;20048;-60
2021/05/01 01:17:34;;;;;;;32.92;29.17;;;7.60;99.90;;;;;;5082396;28;20040;-60
2021/05/01 01:20:00;;;;;;;40.35;31.83;;;7.60;99.90;;;;;;5071843;28;20403;-60
2021/05/01 01:22:25;;;;;;;34.35;29.17;;;7.60;99.90;;;;;;5084357;28;20584;-60
2021/05/01 01:24:51;;;;;;;32.72;29.15;;;7.60;99.90;;;;;;5072080;28;20371;-60
2021/05/01 01:27:18;;;;;;;32.67;29.27;;;7.50;99.90;;;;;;5078259;28;20037;-60
2021/05/01 01:29:44;;;;;;;40.17;31.83;;;7.50;99.90;;;;;;5080859;28;20044;-60
2021/05/01 01:32:12;;;;;;;39.03;32.17;;;7.40;99.90;;;;;;5084072;28;20418;-60
2021/05/01 01:34:42;;;;;;;40.33;32.88;;;7.40;99.90;;;;;;5075162;28;20415;-59
2021/05/01 01:37:09;;;;;;;34.33;30.35;;;7.40;99.90;;;;;;5085473;28;20045;-60
2021/05/01 01:39:35;;;;;;;33.50;29.98;;;7.30;99.90;;;;;;5078522;28;20036;-60
2021/05/01 01:42:00;;;;;;;37.22;31.73;;;7.30;99.90;;;;;;5082244;28;20447;-60
2021/05/01 01:44:26;;;;;;;33.58;29.92;;;7.30;99.90;;;;;;5079211;28;20307;-60
2021/05/01 01:46:52;;;;;;;37.50;32.65;;;7.20;99.90;;;;;;5072217;28;20059;-60
2021/05/01 01:49:18;;;;;;;52.40;36.53;;;7.20;99.90;;;;;;5081912;28;20083;-59
2021/05/01 01:51:44;;;;;;;40.35;33.17;;;7.30;99.90;;;;;;5079525;28;20502;-60
2021/05/01 01:54:10;;;;;;;38.15;32.58;;;7.20;99.90;;;;;;5077585;28;20498;-60
2021/05/01 01:56:37;;;;;;;41.78;33.17;;;7.20;99.90;;;;;;5078949;28;20118;-60
2021/05/01 01:59:05;;;;;;;31.50;28.10;;;7.20;99.90;;;;;;5084862;28;20065;-60
2021/05/01 02:01:32;;;;;;;33.80;30.15;;;7.10;99.90;;;;;;5077135;28;20047;-60
2021/05/01 02:03:58;;;;;;;29.10;26.20;;;7.10;99.90;;;;;;5080154;28;20114;-59
2021/05/01 02:06:24;;;;;;;30.73;27.52;;;7.10;99.90;;;;;;5075710;28;20479;-60
2021/05/01 02:08:50;;;;;;;33.45;28.73;;;7.00;99.90;;;;;;5080099;28;20093;-58
2021/05/01 02:11:16;;;;;;;34.42;29.10;;;6.90;99.90;;;;;;5073983;28;20063;-60
2021/05/01 02:13:42;;;;;;;29.88;26.70;;;6.90;99.90;;;;;;5084399;28;20107;-60
2021/05/01 02:16:09;;;;;;;38.47;30.63;;;6.90;99.90;;;;;;5080447;28;20167;-60
2021/05/01 02:18:35;;;;;;;68.00;35.53;;;6.80;99.90;;;;;;5078418;28;20040;-60
2021/05/01 02:21:01;;;;;;;28.55;25.55;;;6.80;99.90;;;;;;5076074;28;20404;-60
2021/05/01 02:23:27;;;;;;;28.10;25.30;;;6.70;99.90;;;;;;5080011;28;20430;-60
2021/05/01 02:25:53;;;;;;;27.70;24.90;;;6.70;99.90;;;;;;5082983;28;20036;-60
2021/05/01 02:28:19;;;;;;;28.02;25.05;;;6.60;99.90;;;;;;5072778;28;20095;-59
2021/05/01 02:30:45;;;;;;;28.55;25.52;;;6.60;99.90;;;;;;5081821;28;20117;-60
2021/05/01 02:33:12;;;;;;;31.50;28.30;;;6.60;99.90;;;;;;5074930;28;20070;-60
2021/05/01 02:35:39;;;;;;;31.55;28.13;;;6.50;99.90;;;;;;5084870;28;20551;-60
2021/05/01 02:38:05;;;;;;;30.58;27.35;;;6.50;99.90;;;;;;5081020;28;20040;-58
2021/05/01 02:40:32;;;;;;;28.25;25.35;;;6.50;99.90;;;;;;5079553;28;20047;-59
2021/05/01 02:43:02;;;;;;;36.35;30.88;;;6.40;99.90;;;;;;5075977;28;20240;-60
2021/05/01 02:45:28;;;;;;;28.13;25.13;;;6.40;99.90;;;;;;5081754;28;20087;-59
2021/05/01 02:47:54;;;;;;;29.13;25.50;;;6.40;99.90;;;;;;5069864;28;20064;-60
2021/05/01 02:50:20;;;;;;;45.40;30.77;;;6.40;99.90;;;;;;5077451;28;20053;-59
2021/05/01 02:52:46;;;;;;;68.55;34.78;;;6.30;99.90;;;;;;5073387;28;20075;-60
2021/05/01 02:55:14;;;;;;;32.15;27.67;;;6.30;99.90;;;;;;5081907;28;20135;-60
2021/05/01 02:57:40;;;;;;;94.68;40.38;;;6.20;99.90;;;;;;5069418;28;20073;-60
2021/05/01 03:00:10;;;;;;;31.40;27.83;;;6.30;99.90;;;;;;5078390;28;20036;-60
2021/05/01 03:02:35;;;;;;;33.47;28.02;;;6.30;99.90;;;;;;5081147;28;20051;-60
2021/05/01 03:05:01;;;;;;;61.35;33.42;;;6.20;99.90;;;;;;5076606;28;20517;-60
2021/05/01 03:07:27;;;;;;;50.97;32.33;;;6.30;99.90;;;;;;5078242;28;20074;-60
2021/05/01 03:09:53;;;;;;;52.10;34.00;;;6.20;99.90;;;;;;5074438;28;20067;-60
2021/05/01 03:12:19;;;;;;;40.33;30.60;;;6.30;99.90;;;;;;5085607;28;20040;-60
2021/05/01 03:14:45;;;;;;;41.47;32.10;;;6.30;99.90;;;;;;5079134;28;20402;-60
2021/05/01 03:17:12;;;;;;;80.57;39.75;;;6.40;99.90;;;;;;5085499;28;20428;-60
2021/05/01 03:19:38;;;;;;;38.28;31.67;;;6.40;99.90;;;;;;5073426;28;20032;-60
2021/05/01 03:22:06;;;;;;;125.03;46.83;;;6.50;99.90;;;;;;5081044;28;20483;-60
2021/05/01 03:24:33;;;;;;;45.28;34.58;;;6.50;99.90;;;;;;5084791;28;20051;-60
2021/05/01 03:26:59;;;;;;;43.90;34.58;;;6.60;99.90;;;;;;5080842;28;20040;-60
2021/05/01 03:29:25;;;;;;;97.43;43.53;;;6.60;99.90;;;;;;5081576;28;20527;-60
2021/05/01 03:31:51;;;;;;;50.58;37.53;;;6.60;99.90;;;;;;5088424;28;20079;-60
2021/05/01 03:34:17;;;;;;;53.83;37.00;;;6.60;99.90;;;;;;5081692;28;20040;-60
2021/05/01 03:36:42;;;;;;;61.95;39.55;;;6.70;99.90;;;;;;5080435;28;20130;-60
2021/05/01 03:39:08;;;;;;;111.28;46.65;;;6.70;99.90;;;;;;5077538;28;20036;-60
2021/05/01 03:41:34;;;;;;;41.55;34.78;;;6.70;99.90;;;;;;5086406;28;20467;-60
2021/05/01 03:44:00;;;;;;;43.78;34.70;;;6.70;99.90;;;;;;5083814;28;20326;-60
2021/05/01 03:46:26;;;;;;;50.10;37.83;;;6.70;99.90;;;;;;5076286;28;20506;-60
2021/05/01 03:48:52;;;;;;;51.78;37.47;;;6.80;99.90;;;;;;5085600;28;20136;-60
2021/05/01 03:51:18;;;;;;;45.20;35.45;;;6.80;99.90;;;;;;5071281;28;20515;-60
2021/05/01 03:53:44;;;;;;;42.72;35.97;;;6.80;99.90;;;;;;5081646;28;20116;-60
2021/05/01 03:56:10;;;;;;;82.43;45.35;;;6.80;99.90;;;;;;5079469;28;20659;-60
2021/05/01 03:58:36;;;;;;;53.35;38.88;;;6.80;99.90;;;;;;5088356;28;20032;-60
2021/05/01 04:01:02;;;;;;;123.32;49.00;;;6.80;99.90;;;;;;5076159;28;20035;-60
2021/05/01 04:03:28;;;;;;;97.15;45.47;;;6.90;99.90;;;;;;5077608;28;20101;-59
2021/05/01 04:05:54;;;;;;;52.75;37.58;;;6.90;99.90;;;;;;5077293;28;20049;-59
2021/05/01 04:08:20;;;;;;;61.15;39.97;;;6.90;99.90;;;;;;5089605;28;20043;-60
2021/05/01 04:10:45;;;;;;;63.97;41.25;;;6.90;99.90;;;;;;5076476;28;20036;-60
2021/05/01 04:13:11;;;;;;;58.22;40.40;;;6.80;99.90;;;;;;5091209;28;20036;-60
2021/05/01 04:15:37;;;;;;;89.43;45.92;;;6.90;99.90;;;;;;5076131;28;20124;-60
2021/05/01 04:18:03;;;;;;;57.00;41.42;;;6.90;99.90;;;;;;5084803;28;20046;-60
2021/05/01 04:20:30;;;;;;;53.03;39.28;;;6.90;99.90;;;;;;5091285;28;20120;-59
2021/05/01 04:22:55;;;;;;;52.88;39.47;;;7.00;99.90;;;;;;5078698;28;20044;-60
2021/05/01 04:25:21;;;;;;;54.58;40.85;;;6.90;99.90;;;;;;5078084;28;20044;-60
2021/05/01 04:27:47;;;;;;;77.38;45.97;;;6.90;99.90;;;;;;5081718;28;20046;-60
2021/05/01 04:30:13;;;;;;;99.75;47.78;;;7.00;99.90;;;;;;5087886;28;20404;-60
2021/05/01 04:32:39;;;;;;;65.47;44.38;;;7.00;99.90;;;;;;5074155;28;20043;-60
2021/05/01 04:35:06;;;;;;;108.40;50.22;;;7.00;99.90;;;;;;5080849;27;20040;-60
2021/05/01 04:37:32;;;;;;;137.63;53.22;;;7.00;99.90;;;;;;5075267;28;20052;-60
2021/05/01 04:39:57;;;;;;;59.92;42.80;;;7.00;99.90;;;;;;5086128;28;20526;-60
2021/05/01 04:42:23;;;;;;;74.63;46.25;;;7.10;99.90;;;;;;5075998;28;20071;-59
2021/05/01 04:44:49;;;;;;;86.75;47.58;;;7.10;99.90;;;;;;5081292;28;20051;-59
2021/05/01 04:47:16;;;;;;;95.25;49.80;;;7.10;99.90;;;;;;5074130;28;20478;-60
2021/05/01 04:49:42;;;;;;;117.40;52.22;;;7.10;99.90;;;;;;5079557;28;20040;-60
2021/05/01 04:52:08;;;;;;;80.20;46.75;;;7.20;99.90;;;;;;5076232;28;20061;-60
2021/05/01 04:54:35;;;;;;;57.63;41.33;;;7.20;99.90;;;;;;5076385;28;20032;-60
2021/05/01 04:57:01;;;;;;;68.40;42.42;;;7.30;99.90;;;;;;5087491;28;20432;-60
2021/05/01 04:59:27;;;;;;;58.80;41.10;;;7.30;99.90;;;;;;5074753;28;20040;-60
2021/05/01 05:01:52;;;;;;;51.80;37.97;;;7.40;99.90;;;;;;5080914;28;20072;-60
2021/05/01 05:04:18;;;;;;;52.45;38.30;;;7.40;99.90;;;;;;5073832;28;20501;-60
2021/05/01 05:06:44;;;;;;;40.22;33.35;;;7.40;99.90;;;;;;5080408;28;20051;-60
2021/05/01 05:09:10;;;;;;;41.53;33.38;;;7.50;99.90;;;;;;5073859;28;20036;-60
2021/05/01 05:11:36;;;;;;;39.10;33.08;;;7.50;99.90;;;;;;5077362;28;20463;-60
2021/05/01 05:14:05;;;;;;;47.83;33.88;;;7.50;99.90;;;;;;5071070;28;20040;-60
2021/05/01 05:16:34;;;;;;;41.92;32.58;;;7.60;99.90;;;;;;5082623;28;20474;-60
2021/05/01 05:18:59;;;;;;;33.88;29.45;;;7.60;99.90;;;;;;5075755;28;20040;-60
2021/05/01 05:21:25;;;;;;;40.08;31.50;;;7.60;99.90;;;;;;5079996;28;20034;-60
2021/05/01 05:23:51;;;;;;;32.58;28.02;;;7.60;99.90;;;;;;5075922;28;20031;-60
2021/05/01 05:26:17;;;;;;;32.70;27.75;;;7.70;99.90;;;;;;5079287;28;20044;-60
2021/05/01 05:28:43;;;;;;;29.08;25.92;;;7.70;99.90;;;;;;5072912;28;20406;-60
2021/05/01 05:31:09;;;;;;;29.05;25.33;;;7.70;99.90;;;;;;5076428;28;20040;-59
2021/05/01 05:33:35;;;;;;;24.15;21.55;;;7.80;99.90;;;;;;5076471;28;20044;-60
2021/05/01 05:36:00;;;;;;;26.30;23.48;;;7.80;99.90;;;;;;5077239;28;20564;-60
2021/05/01 05:38:26;;;;;;;22.58;20.25;;;7.80;99.90;;;;;;5079342;28;20044;-60
2021/05/01 05:40:52;;;;;;;24.33;21.73;;;7.90;99.90;;;;;;5069933;28;20139;-60
2021/05/01 05:43:18;;;;;;;24.08;20.65;;;7.90;99.90;;;;;;5079265;28;20051;-60
2021/05/01 05:45:46;;;;;;;21.48;19.17;;;7.80;99.90;;;;;;5074820;28;20036;-60
2021/05/01 05:48:12;;;;;;;22.40;20.05;;;7.90;99.90;;;;;;5079599;28;20404;-60
2021/05/01 05:50:38;;;;;;;21.42;18.30;;;7.90;99.90;;;;;;5082132;28;20085;-60
2021/05/01 05:53:04;;;;;;;19.25;17.27;;;7.80;99.90;;;;;;5087739;28;20047;-60
2021/05/01 05:55:30;;;;;;;20.40;17.85;;;7.90;99.90;;;;;;5078536;28;20035;-61
2021/05/01 05:57:56;;;;;;;21.15;18.65;;;7.90;99.90;;;;;;5084449;28;20056;-60
2021/05/01 06:00:25;;;;;;;21.23;19.02;;;7.90;99.90;;;;;;5080179;28;20038;-60
2021/05/01 06:02:52;;;;;;;21.42;18.67;;;7.90;99.90;;;;;;5084120;28;20418;-60
2021/05/01 06:05:21;;;;;;;22.00;19.63;;;7.90;99.90;;;;;;5077721;28;20040;-60
2021/05/01 06:07:50;;;;;;;22.30;19.98;;;7.90;99.90;;;;;;5087283;28;20047;-59
2021/05/01 06:10:16;;;;;;;20.90;18.77;;;7.90;99.90;;;;;;5078780;28;20044;-60
2021/05/01 06:12:43;;;;;;;23.52;20.15;;;8.00;99.90;;;;;;5084326;28;20402;-60
2021/05/01 06:15:14;;;;;;;21.75;19.45;;;8.00;99.90;;;;;;5085499;28;20036;-60
2021/05/01 06:17:41;;;;;;;22.13;19.92;;;8.10;99.90;;;;;;5084882;28;20368;-60
2021/05/01 06:20:10;;;;;;;25.30;22.20;;;8.10;99.90;;;;;;5085097;28;20460;-60
2021/05/01 06:22:36;;;;;;;146.15;128.63;;;8.20;99.90;;;;;;5076979;28;20036;-60
2021/05/01 06:25:06;;;;;;;25.90;23.20;;;8.30;99.90;;;;;;5083472;28;20046;-60
2021/05/01 06:27:33;;;;;;;23.42;20.95;;;8.30;99.90;;;;;;5075167;28;20072;-60
2021/05/01 06:30:00;;;;;;;25.88;22.73;;;8.50;99.90;;;;;;5081752;28;20039;-60
2021/05/01 06:32:26;;;;;;;27.58;23.48;;;8.70;99.90;;;;;;5079896;28;20075;-60
2021/05/01 06:34:54;;;;;;;26.98;23.77;;;8.80;99.90;;;;;;5087684;28;20072;-60
2021/05/01 06:37:22;;;;;;;30.08;24.80;;;9.00;99.90;;;;;;5077670;28;20127;-60
2021/05/01 06:39:49;;;;;;;27.77;22.52;;;9.20;99.90;;;;;;5082674;28;20047;-60
2021/05/01 06:42:28;;;;;;;24.17;21.55;;;9.30;99.90;;;;;;5076064;28;20467;-60
2021/05/01 06:45:12;;;;;;;26.13;21.48;;;9.50;99.90;;;;;;5089394;28;20455;-61
2021/05/01 06:47:46;;;;;;;24.77;20.38;;;9.70;99.90;;;;;;5081884;28;20032;-60
2021/05/01 06:50:14;;;;;;;27.15;19.00;;;9.90;99.90;;;;;;5087986;28;20048;-60
2021/05/01 06:52:49;;;;;;;25.25;18.85;;;10.10;99.90;;;;;;5079967;28;20077;-60
2021/05/01 06:55:18;;;;;;;22.27;17.15;;;10.10;99.90;;;;;;5091883;28;20044;-60
2021/05/01 06:57:47;;;;;;;26.50;16.13;;;9.90;99.90;;;;;;5080939;28;20123;-60
2021/05/01 07:00:15;;;;;;;25.27;16.27;;;9.90;99.90;;;;;;5083164;28;20075;-60
2021/05/01 07:02:45;;;;;;;28.02;16.52;;;9.80;99.90;;;;;;5085389;28;20047;-62
2021/05/01 07:05:14;;;;;;;24.48;16.50;;;9.60;99.90;;;;;;5085863;28;20042;-60
2021/05/01 07:07:40;;;;;;;25.00;14.95;;;9.50;99.90;;;;;;5081445;28;20114;-60
2021/05/01 07:10:08;;;;;;;24.73;15.50;;;9.40;99.90;;;;;;5089676;28;20123;-60
2021/05/01 07:12:35;;;;;;;25.35;17.48;;;9.40;99.90;;;;;;5081871;28;20032;-61
2021/05/01 07:15:06;;;;;;;19.45;14.80;;;9.40;99.90;;;;;;5087440;28;20074;-61
2021/05/01 07:17:32;;;;;;;24.30;14.52;;;9.40;99.90;;;;;;5087057;28;20118;-61
2021/05/01 07:20:00;;;;;;;25.35;15.13;;;9.40;99.90;;;;;;5082191;28;20036;-61
2021/05/01 07:22:26;;;;;;;18.02;14.38;;;9.50;99.90;;;;;;5089273;28;20475;-61
2021/05/01 07:24:52;;;;;;;23.52;14.65;;;9.60;99.90;;;;;;5079560;28;20467;-61
2021/05/01 07:27:20;;;;;;;23.13;15.63;;;9.80;99.90;;;;;;5091963;28;20047;-61
2021/05/01 07:29:50;;;;;;;24.45;15.07;;;10.10;99.90;;;;;;5080104;28;20125;-61
2021/05/01 07:32:17;;;;;;;18.52;12.68;;;10.30;99.90;;;;;;5085786;28;20035;-61
2021/05/01 07:34:50;;;;;;;19.30;13.45;;;10.40;99.90;;;;;;5080596;28;20101;-61
2021/05/01 07:37:21;;;;;;;21.35;14.70;;;10.50;99.90;;;;;;5091984;28;20515;-61
2021/05/01 07:39:56;;;;;;;17.08;12.80;;;10.70;99.90;;;;;;5079290;28;20487;-61
2021/05/01 07:42:23;;;;;;;16.08;13.27;;;11.20;99.40;;;;;;5086507;28;20028;-61
2021/05/01 07:44:54;;;;;;;17.60;11.93;;;11.50;99.90;;;;;;5078540;28;20451;-62
2021/05/01 07:47:23;;;;;;;13.85;11.07;;;11.80;99.80;;;;;;5087277;28;20105;-61
2021/05/01 07:49:50;;;;;;;15.57;11.32;;;12.00;99.40;;;;;;5081651;28;20028;-62
2021/05/01 07:52:18;;;;;;;16.33;10.68;;;12.00;98.90;;;;;;5092322;28;20086;-61
2021/05/01 07:54:44;;;;;;;12.05;10.30;;;12.00;97.70;;;;;;5077606;28;20444;-62
2021/05/01 07:57:11;;;;;;;15.43;11.20;;;11.80;98.10;;;;;;5085359;28;20047;-62
2021/05/01 07:59:37;;;;;;;19.17;14.50;;;11.60;97.50;;;;;;5080666;28;20491;-62
2021/05/01 08:02:04;;;;;;;13.35;10.50;;;11.40;98.20;;;;;;5088701;28;20048;-62
2021/05/01 08:04:30;;;;;;;17.40;10.77;;;11.50;98.40;;;;;;5079399;28;20074;-62
2021/05/01 08:06:56;;;;;;;13.27;9.63;;;11.60;97.90;;;;;;5093177;28;20040;-62
2021/05/01 08:09:22;;;;;;;13.43;9.77;;;11.70;98.20;;;;;;5089085;28;20118;-60
2021/05/01 08:11:48;;;;;;;11.70;9.52;;;11.80;98.90;;;;;;5072926;28;20143;-60
2021/05/01 08:14:14;;;;;;;16.02;9.93;;;11.90;97.50;;;;;;5086623;28;20490;-60
2021/05/01 08:16:40;;;;;;;11.80;9.68;;;12.30;97.10;;;;;;5077169;28;20120;-61
2021/05/01 08:19:06;;;;;;;13.35;8.88;;;12.70;97.40;;;;;;5082242;28;20060;-61
2021/05/01 08:21:35;;;;;;;12.02;9.48;;;12.70;96.40;;;;;;5074974;28;20036;-61
2021/05/01 08:24:02;;;;;;;12.15;9.20;;;12.50;95.80;;;;;;5084256;28;20066;-61
2021/05/01 08:26:28;;;;;;;10.57;8.65;;;12.60;97.40;;;;;;5079524;28;20028;-62
2021/05/01 08:28:54;;;;;;;13.98;8.25;;;13.20;96.50;;;;;;5077053;28;20154;-61
2021/05/01 08:31:20;;;;;;;10.05;8.52;;;13.40;95.80;;;;;;5075931;28;20125;-62
2021/05/01 08:33:46;;;;;;;10.85;8.57;;;13.70;95.10;;;;;;5079591;28;20052;-62
2021/05/01 08:36:12;;;;;;;12.32;8.88;;;13.60;93.80;;;;;;5081998;28;20044;-61
2021/05/01 08:38:38;;;;;;;11.35;8.82;;;13.70;93.80;;;;;;5082645;28;20120;-61
2021/05/01 08:41:05;;;;;;;12.70;8.32;;;14.20;92.70;;;;;;5075586;28;20060;-61
2021/05/01 08:43:31;;;;;;;10.63;7.97;;;14.80;93.30;;;;;;5078558;28;20047;-61
2021/05/01 08:45:58;;;;;;;11.00;7.88;;;15.40;95.00;;;;;;5080688;28;20032;-62
2021/05/01 08:48:26;;;;;;;8.63;7.00;;;15.10;92.30;;;;;;5083361;28;20453;-61
2021/05/01 08:51:02;;;;;;;12.13;7.75;;;14.60;91.50;;;;;;5081837;28;20551;-62
2021/05/01 08:53:29;;;;;;;11.15;7.82;;;14.80;88.30;;;;;;5078013;28;20127;-62
2021/05/01 08:55:56;;;;;;;10.30;8.25;;;15.10;92.40;;;;;;5075958;28;20457;-61
2021/05/01 08:58:22;;;;;;;8.48;7.60;;;14.70;90.30;;;;;;5073040;28;20134;-62
2021/05/01 09:00:49;;;;;;;13.32;7.00;;;14.90;91.50;;;;;;5084864;28;20134;-62
2021/05/01 09:03:22;;;;;;;9.30;6.75;;;14.70;90.30;;;;;;5075694;28;20063;-61
2021/05/01 09:05:50;;;;;;;9.10;7.07;;;14.20;90.90;;;;;;5081101;28;20051;-62
2021/05/01 09:08:19;;;;;;;9.25;7.10;;;13.90;89.60;;;;;;5071894;28;20526;-61
2021/05/01 09:10:50;;;;;;;7.72;6.95;;;13.50;90.20;;;;;;5078202;28;20037;-61
2021/05/01 09:13:23;;;;;;;9.43;6.45;;;13.20;87.60;;;;;;5074474;28;20139;-61
2021/05/01 09:16:06;;;;;;;11.48;6.95;;;13.70;91.90;;;;;;5078714;28;20028;-61
2021/05/01 09:18:55;;;;;;;8.63;6.07;;;14.40;95.90;;;;;;5070283;28;20411;-61
2021/05/01 09:21:22;;;;;;;7.10;6.05;;;14.30;81.80;;;;;;5079613;28;20048;-61
2021/05/01 09:23:49;;;;;;;7.38;6.68;;;14.20;90.90;;;;;;5076594;28;20036;-61
2021/05/01 09:26:21;;;;;;;18.13;14.80;;;13.90;90.00;;;;;;5077996;28;20048;-61
2021/05/01 09:28:49;;;;;;;11.32;8.77;;;13.50;88.50;;;;;;5072676;28;20040;-60
2021/05/01 09:31:19;;;;;;;7.57;6.00;;;13.20;89.50;;;;;;5078428;28;20132;-61
2021/05/01 09:33:51;;;;;;;8.00;6.10;;;13.50;87.00;;;;;;5072814;28;20165;-61
2021/05/01 09:36:21;;;;;;;6.22;5.15;;;14.30;84.40;;;;;;5081154;28;20040;-61
2021/05/01 09:39:09;;;;;;;10.05;6.38;;;14.40;90.40;;;;;;5071167;28;20751;-61
2021/05/01 09:41:40;;;;;;;11.73;6.13;;;14.20;82.60;;;;;;5081303;28;20036;-61
2021/05/01 09:44:07;;;;;;;8.15;6.50;;;13.80;89.00;;;;;;5075514;28;20062;-61
2021/05/01 09:46:39;;;;;;;7.53;6.20;;;13.60;90.10;;;;;;5082297;28;20043;-60
2021/05/01 09:49:23;;;;;;;9.05;6.13;;;13.50;86.40;;;;;;5069028;28;20059;-61
2021/05/01 09:51:54;;;;;;;8.63;7.00;;;13.70;83.90;;;;;;5080262;28;20047;-61
2021/05/01 09:54:28;;;;;;;7.85;6.25;;;13.90;88.60;;;;;;5072881;28;20071;-60
2021/05/01 09:56:57;;;;;;;6.90;6.10;;;13.80;88.10;;;;;;5079963;28;20127;-59
2021/05/01 09:59:42;;;;;;;7.43;5.75;;;13.70;87.80;;;;;;5073925;28;20047;-59
2021/05/01 10:02:10;;;;;;;7.65;5.78;;;13.50;81.70;;;;;;5078848;28;20517;-59
2021/05/01 10:04:38;;;;;;;7.40;5.85;;;13.30;84.30;;;;;;5074549;28;20044;-59
2021/05/01 10:07:06;;;;;;;6.85;5.15;;;13.10;83.60;;;;;;5078217;28;20375;-59
2021/05/01 10:09:37;;;;;;;7.60;6.05;;;13.00;82.60;;;;;;5072246;28;20044;-59
2021/05/01 10:12:16;;;;;;;6.40;5.28;;;13.30;85.00;;;;;;5078174;28;20040;-60
2021/05/01 10:14:46;;;;;;;7.53;6.28;;;14.10;90.00;;;;;;5069070;28;20502;-60
2021/05/01 10:17:15;;;;;;;6.68;5.22;;;14.70;82.00;;;;;;5076626;28;20044;-60
2021/05/01 10:20:18;;;;;;;7.85;4.75;;;15.10;91.20;;;;;;5074979;28;20448;-60
2021/05/01 10:22:50;;;;;;;5.53;4.93;;;15.20;84.80;;;;;;5087164;28;20043;-60
2021/05/01 10:25:18;;;;;;;4.93;4.43;;;15.00;74.80;;;;;;5070627;28;20044;-60
2021/05/01 10:27:55;;;;;;;5.10;4.60;;;15.00;78.90;;;;;;5078832;28;20374;-60
2021/05/01 10:30:32;;;;;;;6.63;4.47;;;14.60;75.30;;;;;;5072008;28;20889;-60
2021/05/01 10:33:23;;;;;;;5.80;5.20;;;14.20;77.40;;;;;;5079516;28;20119;-60
2021/05/01 10:36:15;;;;;;;6.25;5.25;;;13.90;79.70;;;;;;5072605;28;20131;-60
2021/05/01 10:38:42;;;;;;;5.43;4.70;;;14.00;73.40;;;;;;5079171;28;20063;-60
2021/05/01 10:41:18;;;;;;;4.40;3.80;;;14.50;88.60;;;;;;5072060;28;20534;-60
2021/05/01 10:43:51;;;;;;;5.00;4.10;;;15.30;90.30;;;;;;5080017;28;20714;-60
2021/05/01 10:46:29;;;;;;;5.82;5.20;;;16.10;82.80;;;;;;5073774;28;20474;-61
2021/05/01 10:49:04;;;;;;;5.78;5.15;;;16.50;75.30;;;;;;5076327;28;20043;-62
2021/05/01 10:51:41;;;;;;;7.03;4.03;;;16.40;65.10;;;;;;5071060;28;20029;-62
2021/05/01 10:54:19;;;;;;;4.82;4.32;;;16.10;75.80;;;;;;5083523;28;20540;-62
2021/05/01 10:56:56;;;;;;;5.00;4.35;;;15.60;67.40;;;;;;5071265;28;20067;-62
2021/05/01 10:59:27;;;;;;;5.15;4.50;;;15.10;73.70;;;;;;5076520;28;20093;-61
2021/05/01 11:01:55;;;;;;;6.65;5.00;;;14.70;71.30;;;;;;5071902;28;20460;-61
2021/05/01 11:04:29;;;;;;;6.95;4.95;;;14.30;75.10;;;;;;5078928;28;20052;-61
2021/05/01 11:07:18;;;;;;;5.80;5.20;;;14.00;70.70;;;;;;5073316;28;20040;-61
2021/05/01 11:09:51;;;;;;;6.47;5.85;;;14.00;73.70;;;;;;5076467;28;20450;-62
2021/05/01 11:12:23;;;;;;;13.00;9.10;;;14.10;79.00;;;;;;5073512;28;20036;-62
2021/05/01 11:15:13;;;;;;;11.57;9.93;;;14.10;81.50;;;;;;5079356;28;20035;-61
2021/05/01 11:17:51;;;;;;;11.45;9.50;;;14.00;67.70;;;;;;5076828;28;20410;-61
2021/05/01 11:20:18;;;;;;;11.57;10.38;;;13.90;77.10;;;;;;5077791;28;20028;-62
2021/05/01 11:22:49;;;;;;;13.65;10.57;;;14.30;82.70;;;;;;5070029;28;20200;-62
2021/05/01 11:25:21;;;;;;;10.77;9.60;;;15.10;88.10;;;;;;5077224;28;20063;-63
2021/05/01 11:27:49;;;;;;;10.45;9.15;;;15.80;81.20;;;;;;5069892;28;20051;-62
2021/05/01 11:30:21;;;;;;;8.90;8.00;;;15.60;75.60;;;;;;5079383;28;20337;-62
2021/05/01 11:32:48;;;;;;;12.25;9.10;;;15.10;77.90;;;;;;5073538;28;20040;-62
2021/05/01 11:35:22;;;;;;;12.40;9.50;;;14.60;77.70;;;;;;5080199;28;20128;-62
2021/05/01 11:37:53;;;;;;;9.75;8.75;;;14.20;76.00;;;;;;5076285;28;20043;-61
2021/05/01 11:40:27;;;;;;;10.85;8.52;;;14.20;81.40;;;;;;5080787;28;20035;-61
2021/05/01 11:42:55;;;;;;;9.30;7.45;;;14.40;74.70;;;;;;5076426;28;20411;-62
2021/05/01 11:45:40;;;;;;;10.52;8.27;;;14.40;83.50;;;;;;5082481;28;20036;-62
2021/05/01 11:48:09;;;;;;;9.27;7.55;;;14.40;79.30;;;;;;5083465;28;20071;-62
2021/05/01 11:50:38;;;;;;;6.70;4.43;;;14.10;76.40;;;;;;5079313;28;20376;-61
2021/05/01 11:53:24;;;;;;;4.72;3.95;;;13.80;70.40;;;;;;5083464;28;20082;-61
2021/05/01 11:55:57;;;;;;;4.38;3.50;;;14.00;71.90;;;;;;5080673;28;20036;-61
2021/05/01 11:58:34;;;;;;;4.20;3.05;;;14.60;80.40;;;;;;5080824;28;20495;-61
2021/05/01 12:01:16;;;;;;;13.52;9.45;;;14.90;74.70;;;;;;5079910;28;20138;-62
2021/05/01 12:03:52;;;;;;;5.70;3.33;;;14.70;67.30;;;;;;5075535;28;20063;-62
2021/05/01 12:06:25;;;;;;;5.85;3.88;;;14.70;78.70;;;;;;5093368;28;20049;-63
2021/05/01 12:08:52;;;;;;;4.68;3.72;;;15.00;77.10;;;;;;5076932;28;20064;-63
2021/05/01 12:11:20;;;;;;;4.72;4.10;;;14.70;74.80;;;;;;5079103;28;20074;-63
2021/05/01 12:13:48;;;;;;;5.43;4.68;;;14.50;73.20;;;;;;5086046;28;20074;-63
2021/05/01 12:16:22;;;;;;;5.60;4.95;;;14.10;77.00;;;;;;5075725;28;20241;-63
2021/05/01 12:18:53;;;;;;;7.28;4.82;;;13.80;73.50;;;;;;5082116;28;20051;-61
2021/05/01 12:21:21;;;;;;;5.32;4.32;;;13.50;77.50;;;;;;5074748;28;20076;-62
2021/05/01 12:23:52;;;;;;;4.80;4.22;;;13.30;76.90;;;;;;5083388;28;20036;-62
2021/05/01 12:26:33;;;;;;;4.05;3.60;;;13.20;79.10;;;;;;5073707;28;20043;-61
2021/05/01 12:29:21;;;;;;;6.00;3.97;;;13.30;80.00;;;;;;5080672;28;20040;-61
2021/05/01 12:31:50;;;;;;;4.88;4.38;;;13.30;74.10;;;;;;5075486;28;20032;-61
2021/05/01 12:34:16;;;;;;;4.63;3.95;;;13.40;81.30;;;;;;5078365;28;20063;-61
2021/05/01 12:36:45;;;;;;;4.70;3.42;;;13.40;81.20;;;;;;5077971;28;20136;-61
2021/05/01 12:39:12;;;;;;;4.78;3.70;;;13.30;76.80;;;;;;5088866;28;20040;-64
2021/05/01 12:41:43;;;;;;;11.30;7.65;;;13.30;76.40;;;;;;5069469;28;20120;-63
2021/05/01 12:44:36;;;;;;;4.47;3.33;;;13.20;75.10;;;;;;5085516;28;20477;-64
2021/05/01 12:47:04;;;;;;;5.45;3.95;;;13.20;73.40;;;;;;5078089;28;20463;-64